Raleigh Durham International Airport
KRDU : now visible

Airfield :











YOU CAN JOIN US ON...

 
LOGIN :

Register | Disclaimer

   EN    FR    IT 

 









Legend :    VFR   Marginal VFR   IFR   Intensive IFR   Very Intensive IFR
Visi :
Ceiling :
>= 8 km
>= 3000ft
5 to 8 km
1000 to 3000 ft
1500m to 5 km
500 to 1000 ft
800 to 1500m
200 to 500 ft
< 800m
< 200 ft
Symbols :   Thunderstorms  Fog  Heavy snow  Heavy precipitations  Wind > 20 kt







- Airport Elevation : 435 ft
- IATA code : RDU


KRDU - Raleigh Durham International

CURRENT METAR :
  • 261451Z VRB04KT 10SM FEW250 30/22 A3011 RMK AO2 SLP189 T03000222 50001 $

EXPIRED METARs :
  • 261351Z 29003KT 10SM FEW250 27/23 A3011 RMK AO2 SLP190 T02720233 $
  • 261251Z 27004KT 7SM FEW011 26/23 A3011 RMK AO2 SLP191 T02560233 $

TAF KRDU
Valid from the 26 at 12:00 until the 27 at 12:00 UTC


261120Z 2612/2712 24005KT P6SM SCT250
TEMPO 2612/2613 5SM BR
FM261500 28008KT P6SM SCT060 BKN250
KZDC FIR / North America



MET'MAP, your aeronautical weather chart ! - Copyright ORBIFLY December 2007 - Disclaimer

ORBIFLY MET'MAP TEAM :

Programming & Development : Alexandra Zaïnal
Concept & Development : Baudouin d'Aumeries
Co-Development & Prog : Marc-Olivier Méhu
Technical & hardware support : Manuel Goepfert

Contact : metmap@orbifly.com




SOURCES & CREDITS :

   NOAA       Earth
Advisory